Kittitas — WYQ9302 — position and weather

sailwx.info

Track history (hours):
 
Tides and Currents Weather Stations Pressure Air Temp Water Temp Dewpoint Dewpoint Depression Visibility Wind Speed Wind Dir Waves Ship Positions

Kittitas

Owner: WASHINGTON, STATE OF; Dept. of Transportation, OLYMPIA, WA. More information available from US FCC via Universal Licensing System and Coast Guard Vessel Documentation Center.

Last reported at 2014-Nov-28 10:33 UTC. Time now 2014-Nov-28 11:08 UTC.
Position N 47°36' W 122°20'.

Length 100 m; draft 4.7 m.

Type: Passenger vessel. MMSI: 366772960.

Date/timePositionNaut miles runAvg speedWind from/ knotsBaromVisibWave heightAir tempDewpointWater temp
2014-Nov-28 10:33N 47°36' W 122°20'0 0.1
2014-Nov-28 10:30N 47°36' W 122°20'0 0.0
2014-Nov-28 09:33N 47°36' W 122°20'0 0.0
2014-Nov-28 09:31N 47°36' W 122°20'0 0.0
2014-Nov-28 08:33N 47°36' W 122°20'0 0.0
2014-Nov-28 08:30N 47°36' W 122°20'0 0.0
2014-Nov-28 07:34N 47°36' W 122°20'0 0.0
2014-Nov-28 07:30N 47°36' W 122°20'0 0.0
2014-Nov-28 06:50N 47°36' W 122°20'0 0.0
2014-Nov-28 06:33N 47°36' W 122°20'0 0.0
2014-Nov-28 05:33N 47°36' W 122°20'0 0.0
2014-Nov-28 05:30N 47°36' W 122°20'0 0.0
2014-Nov-28 04:33N 47°36' W 122°20'0 0.0
2014-Nov-28 04:30N 47°36' W 122°20'0 0.0
2014-Nov-28 03:34N 47°36' W 122°20'0 0.0
2014-Nov-28 03:30N 47°36' W 122°20'0 0.0
2014-Nov-28 02:33N 47°36' W 122°20'0 0.0
2014-Nov-28 02:24N 47°36' W 122°20'0 0.0
2014-Nov-28 01:33N 47°36' W 122°20'0 0.1
2014-Nov-28 01:29N 47°36' W 122°20'0 0.0
2014-Nov-28 00:34N 47°36' W 122°20'0 0.0
2014-Nov-28 00:28N 47°36' W 122°20'0 0.0
2014-Nov-27 23:34N 47°36' W 122°20'0 0.0
2014-Nov-27 23:34N 47°36' W 122°20'0 0.0
2014-Nov-27 22:34N 47°36' W 122°20'0 0.0
2014-Nov-27 22:34N 47°36' W 122°20'0 0.0
2014-Nov-27 21:34N 47°36' W 122°20'0 0.0
2014-Nov-27 21:33N 47°36' W 122°20'0 0.0
2014-Nov-27 20:33N 47°36' W 122°20'0 0.0
2014-Nov-27 20:33N 47°36' W 122°20'0 0.0
2014-Nov-27 19:34N 47°36' W 122°20'0 0.0
2014-Nov-27 19:33N 47°36' W 122°20'0 0.0
2014-Nov-27 18:34N 47°36' W 122°20'0 0.0
2014-Nov-27 18:32N 47°36' W 122°20'0 0.0
2014-Nov-27 17:33N 47°36' W 122°20'0 0.0
2014-Nov-27 16:33N 47°36' W 122°20'0 0.0
2014-Nov-27 16:13N 47°36' W 122°20'0 0.0
2014-Nov-27 15:34N 47°36' W 122°20'0 0.0
2014-Nov-27 15:33N 47°36' W 122°20'0 0.0
2014-Nov-27 14:33N 47°36' W 122°20'0 0.0
2014-Nov-27 14:33N 47°36' W 122°20'0 0.0
2014-Nov-27 13:34N 47°36' W 122°20'0 0.0
2014-Nov-27 13:33N 47°36' W 122°20'0 0.0
2014-Nov-27 12:34N 47°36' W 122°20'0 0.0
2014-Nov-27 12:33N 47°36' W 122°20'0 0.0
2014-Nov-27 11:33N 47°36' W 122°20'0 0.0
2014-Nov-27 11:33N 47°36' W 122°20'0 0.0
2014-Nov-27 10:33N 47°36' W 122°20'0 0.0
2014-Nov-27 10:32N 47°36' W 122°20'0 0.0
2014-Nov-27 09:33N 47°36' W 122°20'0 0.0
2014-Nov-27 09:27N 47°36' W 122°20'0 0.0
2014-Nov-27 08:33N 47°36' W 122°20'0 0.0
2014-Nov-27 08:32N 47°36' W 122°20'0 0.0
2014-Nov-27 07:34N 47°36' W 122°20'0 0.0
2014-Nov-27 07:27N 47°36' W 122°20'0 0.0
2014-Nov-27 06:57N 47°36' W 122°20'0 0.0
2014-Nov-27 06:34N 47°36' W 122°20'9 8.5
2014-Nov-27 05:34N 47°43' W 122°27'013.6
2014-Nov-27 05:32N 47°44' W 122°27'1515.7
2014-Nov-27 04:33N 47°58' W 122°21'0 0.0
2014-Nov-27 04:11N 47°58' W 122°21'0 0.6
2014-Nov-27 03:34N 47°58' W 122°20'1 1.5
2014-Nov-27 03:06N 47°58' W 122°20'1 1.1
2014-Nov-27 02:33N 47°58' W 122°20'0 0.1
2014-Nov-27 01:33N 47°58' W 122°20'0 0.2
2014-Nov-27 00:33N 47°58' W 122°20'0 0.6
2014-Nov-27 00:09N 47°58' W 122°21'0 0.3
2014-Nov-26 23:34N 47°58' W 122°20'0 1.2
2014-Nov-26 23:10N 47°58' W 122°20'1 0.9
2014-Nov-26 22:33N 47°58' W 122°20'0 0.4
2014-Nov-26 21:39N 47°58' W 122°20'1 8.0
2014-Nov-26 21:33N 47°58' W 122°21'0 0.0
2014-Nov-26 20:33N 47°58' W 122°21'0 0.3
2014-Nov-26 19:34N 47°58' W 122°21'012.3
2014-Nov-26 19:33N 47°58' W 122°21'2 3.7
2014-Nov-26 19:03N 47°57' W 122°19'2 3.6
2014-Nov-26 18:34N 47°58' W 122°21'1 0.7
2014-Nov-26 17:38N 47°58' W 122°20'110.6
2014-Nov-26 17:33N 47°58' W 122°21'0 0.3
2014-Nov-26 16:33N 47°58' W 122°21'0 0.0
2014-Nov-26 15:33N 47°58' W 122°21'0 0.1
2014-Nov-26 14:33N 47°58' W 122°21'1 1.8
2014-Nov-26 14:08N 47°58' W 122°20'1 1.1
2014-Nov-26 13:33N 47°58' W 122°20'013.4
2014-Nov-26 13:33N 47°58' W 122°21'0 0.3
2014-Nov-26 12:27N 47°59' W 122°21'0 0.0
2014-Nov-26 11:33N 47°59' W 122°21'0 0.0
2014-Nov-26 10:32N 47°59' W 122°21'0 0.0
2014-Nov-26 09:26N 47°59' W 122°21'0 0.0
2014-Nov-26 08:28N 47°59' W 122°21'0 0.0
2014-Nov-26 05:17N 47°59' W 122°21'0 0.3
2014-Nov-26 04:33N 47°58' W 122°21'0 0.2
2014-Nov-26 03:33N 47°58' W 122°21'0 0.1
2014-Nov-26 02:33N 47°58' W 122°21'0 0.2
2014-Nov-26 01:34N 47°58' W 122°21'0 0.2
2014-Nov-26 00:33N 47°58' W 122°21'0 0.4
2014-Nov-25 23:33N 47°58' W 122°21'0 0.0
2014-Nov-25 22:33N 47°58' W 122°21'1 2.3
2014-Nov-25 22:09N 47°58' W 122°20'1 1.2
2014-Nov-25 21:33N 47°58' W 122°21'2 2.6
2014-Nov-25 20:44N 47°57' W 122°18'210.3
2014-Nov-25 20:33N 47°58' W 122°21'0 0.0
2014-Nov-25 19:33N 47°58' W 122°21'0 0.1
2014-Nov-25 18:33N 47°58' W 122°21'1 0.5
2014-Nov-25 17:34N 47°58' W 122°20'0 0.3
2014-Nov-25 16:33N 47°58' W 122°20'0 1.1
2014-Nov-25 16:08N 47°58' W 122°20'1 1.0
2014-Nov-25 15:33N 47°58' W 122°21'0 0.1
2014-Nov-25 14:33N 47°58' W 122°21'011.2
2014-Nov-25 14:32N 47°58' W 122°21'0 0.1
2014-Nov-25 13:33N 47°58' W 122°21'0 0.1
2014-Nov-25 11:37N 47°59' W 122°21'0 0.0
2014-Nov-25 11:22N 47°59' W 122°21'0 0.0
2014-Nov-25 11:21N 47°59' W 122°21'0 0.0
2014-Nov-25 09:11N 47°59' W 122°21'0 0.0
2014-Nov-25 09:10N 47°59' W 122°21'0 0.1
2014-Nov-25 08:33N 47°59' W 122°21'0 0.1
2014-Nov-25 08:11N 47°59' W 122°21'0 0.0
2014-Nov-25 07:32N 47°59' W 122°21'0 0.0
2014-Nov-25 07:16N 47°59' W 122°21'0 0.0
2014-Nov-25 06:51N 47°59' W 122°21'0 0.0
2014-Nov-25 06:33N 47°59' W 122°21'0 0.0
2014-Nov-25 05:31N 47°59' W 122°21'0 0.0
2014-Nov-25 05:18N 47°59' W 122°21'1 0.8
2014-Nov-25 04:33N 47°58' W 122°20'111.6
2014-Nov-25 04:30N 47°58' W 122°21'1 0.6
2014-Nov-25 03:33N 47°58' W 122°20'1 1.7
2014-Nov-25 03:05N 47°57' W 122°20'1 1.5
2014-Nov-25 02:33N 47°58' W 122°20'0 0.1
2014-Nov-25 01:33N 47°58' W 122°20'0 0.1
2014-Nov-25 00:33N 47°58' W 122°21'0 0.1
2014-Nov-24 23:33N 47°58' W 122°21'0 0.1
2014-Nov-24 22:33N 47°58' W 122°21'0 0.2
2014-Nov-24 21:33N 47°58' W 122°21'0 0.2
2014-Nov-24 20:33N 47°58' W 122°21'0 0.5
2014-Nov-24 20:10N 47°58' W 122°21'0 0.4
2014-Nov-24 19:33N 47°58' W 122°20'0 0.3
2014-Nov-24 18:33N 47°58' W 122°21'0 0.2
2014-Nov-24 17:31N 47°58' W 122°21'1 0.6
2014-Nov-24 16:33N 47°58' W 122°20'0 0.2
2014-Nov-24 15:34N 47°58' W 122°20'0 0.1
2014-Nov-24 14:33N 47°58' W 122°21'1 1.3
2014-Nov-24 14:07N 47°58' W 122°20'0 0.8
2014-Nov-24 13:34N 47°58' W 122°20'015.6
2014-Nov-24 13:33N 47°58' W 122°21'0 0.3
2014-Nov-24 12:33N 47°58' W 122°21'0 0.0
2014-Nov-24 11:34N 47°58' W 122°21'0 0.0
2014-Nov-24 10:32N 47°58' W 122°21'0 0.0
2014-Nov-24 09:26N 47°58' W 122°21'0 0.5
2014-Nov-24 08:33N 47°58' W 122°20'0 0.2
2014-Nov-24 07:33N 47°58' W 122°20'115.8
2014-Nov-24 07:32N 47°58' W 122°21'1 0.5
2014-Nov-24 06:36N 47°58' W 122°20'112.1
2014-Nov-24 06:33N 47°58' W 122°21'1 0.6
2014-Nov-24 05:33N 47°58' W 122°20'0 0.4
2014-Nov-24 04:33N 47°58' W 122°20'0 0.0
2014-Nov-24 03:33N 47°58' W 122°20'0 0.3
2014-Nov-24 02:33N 47°58' W 122°21'0 0.0
2014-Nov-24 01:33N 47°58' W 122°21'0 0.1
2014-Nov-24 00:33N 47°58' W 122°21'0 0.1
2014-Nov-23 23:33N 47°58' W 122°21'0 0.2
2014-Nov-23 22:33N 47°58' W 122°20'0 0.1
2014-Nov-23 21:33N 47°58' W 122°21'2 3.4
2014-Nov-23 21:02N 47°57' W 122°19'2 3.9
2014-Nov-23 20:33N 47°58' W 122°21'0 0.5
2014-Nov-23 19:34N 47°58' W 122°20'014.4
2014-Nov-23 19:33N 47°58' W 122°20'2 3.1
2014-Nov-23 18:58N 47°57' W 122°18'2 4.4
2014-Nov-23 18:33N 47°58' W 122°20'1 1.6
2014-Nov-23 18:06N 47°58' W 122°20'1 1.4
2014-Nov-23 17:33N 47°58' W 122°20'0 0.1
2014-Nov-23 16:33N 47°58' W 122°20'0 0.5
2014-Nov-23 15:33N 47°59' W 122°20'0 4.4
2014-Nov-23 15:28N 47°59' W 122°21'0 0.4
2014-Nov-23 14:34N 47°59' W 122°21'0 3.7
2014-Nov-23 14:28N 47°59' W 122°21'0 0.3
2014-Nov-23 13:33N 47°59' W 122°21'0 8.4
2014-Nov-23 13:32N 47°59' W 122°21'0 0.2
2014-Nov-23 12:33N 47°59' W 122°21'0 0.0
2014-Nov-23 12:12N 47°59' W 122°21'0 0.0
2014-Nov-23 11:33N 47°59' W 122°21'0 0.0
2014-Nov-23 10:47N 47°59' W 122°21'0 0.0
2014-Nov-23 10:32N 47°59' W 122°21'0 0.0
2014-Nov-23 10:22N 47°59' W 122°21'0 0.0
2014-Nov-23 09:32N 47°59' W 122°21'0 0.0
2014-Nov-23 09:29N 47°59' W 122°21'0 0.0
2014-Nov-23 07:29N 47°59' W 122°21'0 0.0
2014-Nov-23 06:57N 47°59' W 122°21'0 0.3
2014-Nov-23 06:33N 47°59' W 122°21'0 0.2
2014-Nov-23 05:32N 47°58' W 122°21'2 3.7
2014-Nov-23 05:07N 47°57' W 122°19'1 2.3
2014-Nov-23 04:33N 47°58' W 122°21'1 0.7
2014-Nov-23 03:37N 47°58' W 122°20'1 9.2
2014-Nov-23 03:33N 47°58' W 122°21'1 0.6
2014-Nov-23 02:34N 47°58' W 122°20'013.4
2014-Nov-23 02:32N 47°58' W 122°20'0 0.2
2014-Nov-23 01:33N 47°58' W 122°21'0 0.5
2014-Nov-23 00:36N 47°58' W 122°20'112.3
2014-Nov-23 00:33N 47°58' W 122°21'0 0.7
2014-Nov-23 00:16N 47°58' W 122°21'0 0.0
2014-Nov-22 23:33N 47°58' W 122°21'0 0.2
2014-Nov-22 22:33N 47°58' W 122°21'1 1.0
2014-Nov-22 21:36N 47°58' W 122°20'117.0
2014-Nov-22 21:33N 47°58' W 122°20'1 1.4
2014-Nov-22 21:06N 47°58' W 122°20'1 1.5
2014-Nov-22 20:33N 47°58' W 122°21'1 2.0
2014-Nov-22 20:06N 47°58' W 122°20'1 1.7
2014-Nov-22 19:33N 47°58' W 122°21'0 0.4
2014-Nov-22 18:33N 47°58' W 122°20'011.9
2014-Nov-22 18:31N 47°58' W 122°21'0 0.4
2014-Nov-22 17:33N 47°58' W 122°20'0 0.1
2014-Nov-22 16:33N 47°58' W 122°21'1 1.6
2014-Nov-22 16:11N 47°58' W 122°20'1 1.3
2014-Nov-22 15:33N 47°58' W 122°21'1 0.8
2014-Nov-22 14:36N 47°58' W 122°20'114.0
2014-Nov-22 14:33N 47°58' W 122°21'2 2.1
2014-Nov-22 13:40N 47°57' W 122°18'215.2
2014-Nov-22 13:33N 47°58' W 122°20'1 0.5
2014-Nov-22 12:18N 47°58' W 122°21'0 0.0
2014-Nov-22 12:17N 47°58' W 122°21'0 0.0
2014-Nov-22 09:26N 47°58' W 122°21'0 0.9
2014-Nov-22 09:16N 47°58' W 122°21'0 0.4
2014-Nov-22 08:33N 47°58' W 122°20'1 1.4
2014-Nov-22 07:38N 47°57' W 122°19'116.7
2014-Nov-22 07:33N 47°58' W 122°20'0 0.0
2014-Nov-22 06:33N 47°58' W 122°20'013.2
2014-Nov-22 06:32N 47°58' W 122°21'0 0.5
2014-Nov-22 05:34N 47°58' W 122°20'0 0.3
2014-Nov-22 05:12N 47°58' W 122°20'0 0.5
2014-Nov-22 04:33N 47°58' W 122°21'0 6.8
2014-Nov-22 04:32N 47°58' W 122°21'0 0.2
2014-Nov-22 03:33N 47°58' W 122°21'0 0.2
2014-Nov-22 02:33N 47°58' W 122°20'1 1.7
2014-Nov-22 02:11N 47°58' W 122°20'1 1.6
2014-Nov-22 01:33N 47°58' W 122°21'1 3.9
2014-Nov-22 01:11N 47°57' W 122°19'1 2.3
2014-Nov-22 00:33N 47°58' W 122°21'0 0.3
2014-Nov-21 23:33N 47°58' W 122°21'0 6.1
2014-Nov-21 23:31N 47°58' W 122°21'0 0.3
2014-Nov-21 22:33N 47°58' W 122°20'0 1.5
2014-Nov-21 22:16N 47°58' W 122°21'1 0.9
2014-Nov-21 21:33N 47°58' W 122°20'1 1.1
2014-Nov-21 21:06N 47°58' W 122°20'1 1.4
2014-Nov-21 20:33N 47°58' W 122°21'0 0.2
2014-Nov-21 19:33N 47°58' W 122°21'0 0.2
2014-Nov-21 18:33N 47°58' W 122°20'0 0.1
2014-Nov-21 17:33N 47°58' W 122°20'0 0.5
2014-Nov-21 16:35N 47°58' W 122°20'013.8
2014-Nov-21 16:33N 47°58' W 122°20'0 0.5
2014-Nov-21 16:10N 47°58' W 122°21'0 0.2
2014-Nov-21 15:33N 47°58' W 122°20'0 0.2
2014-Nov-21 14:32N 47°58' W 122°21'0 0.1
2014-Nov-21 13:33N 47°58' W 122°21'0 0.4
2014-Nov-21 12:31N 47°59' W 122°21'0 0.0
2014-Nov-21 11:16N 47°59' W 122°21'0 0.0
2014-Nov-21 10:48N 47°59' W 122°21'0 0.1
2014-Nov-21 10:25N 47°59' W 122°21'0 0.0
2014-Nov-21 09:17N 47°59' W 122°21'0 0.0
2014-Nov-21 07:28N 47°59' W 122°21'0 0.0
2014-Nov-21 06:23N 47°59' W 122°21'0 0.0
2014-Nov-21 05:32N 47°59' W 122°21'1 2.3
2014-Nov-21 05:08N 47°59' W 122°20'1 1.4
2014-Nov-21 04:32N 47°58' W 122°21'2 1.7
2014-Nov-21 03:37N 47°58' W 122°19'116.2
2014-Nov-21 03:34N 47°58' W 122°20'1 1.4
2014-Nov-21 03:08N 47°58' W 122°20'1 1.7
2014-Nov-21 02:33N 47°58' W 122°21'2 2.3
2014-Nov-21 01:42N 47°57' W 122°18'211.6
2014-Nov-21 01:33N 47°58' W 122°21'012.5
2014-Nov-21 01:32N 47°58' W 122°21'0 0.3
2014-Nov-21 00:33N 47°58' W 122°20'2 2.1
2014-Nov-20 23:41N 47°57' W 122°18'213.7
2014-Nov-20 23:33N 47°58' W 122°20'1 2.4
2014-Nov-20 23:06N 47°57' W 122°19'1 2.2
2014-Nov-20 22:34N 47°58' W 122°20'1 2.6
2014-Nov-20 22:05N 47°57' W 122°19'1 2.8
2014-Nov-20 21:33N 47°58' W 122°21'1 0.7
2014-Nov-20 20:36N 47°58' W 122°20'114.0
2014-Nov-20 20:33N 47°58' W 122°21'1 0.7
2014-Nov-20 19:36N 47°58' W 122°20'113.9
2014-Nov-20 19:34N 47°58' W 122°21'0 0.1
2014-Nov-20 18:33N 47°58' W 122°21'0 0.1
2014-Nov-20 17:33N 47°58' W 122°20'0 0.3
2014-Nov-20 16:35N 47°58' W 122°20'014.9
2014-Nov-20 16:33N 47°58' W 122°20'0 0.1
2014-Nov-20 15:34N 47°58' W 122°21'0 0.5
2014-Nov-20 15:10N 47°58' W 122°21'0 0.2
2014-Nov-20 14:32N 47°58' W 122°21'0 0.3
2014-Nov-20 13:33N 47°58' W 122°20'1 1.9
2014-Nov-20 13:09N 47°58' W 122°20'1 2.2
2014-Nov-20 12:33N 47°58' W 122°21'0 0.0
2014-Nov-20 11:32N 47°58' W 122°21'0 0.0
2014-Nov-20 10:33N 47°58' W 122°21'0 0.0
2014-Nov-20 09:21N 47°58' W 122°21'2 6.1
2014-Nov-20 08:58N 47°57' W 122°18'2 4.1
2014-Nov-20 08:33N 47°58' W 122°20'0 0.2
2014-Nov-20 07:33N 47°58' W 122°20'0 0.1
2014-Nov-20 06:33N 47°58' W 122°21'1 1.3
2014-Nov-20 06:07N 47°58' W 122°20'1 1.1
2014-Nov-20 05:33N 47°58' W 122°21'0 0.7
2014-Nov-20 05:07N 47°58' W 122°20'0 0.4
2014-Nov-20 04:33N 47°58' W 122°20'010.8
2014-Nov-20 04:32N 47°58' W 122°21'0 0.0
2014-Nov-20 03:33N 47°58' W 122°21'1 1.2
2014-Nov-20 03:07N 47°58' W 122°20'0 0.7
2014-Nov-20 02:33N 47°58' W 122°20'0 0.1
2014-Nov-20 01:33N 47°58' W 122°21'1 1.6
2014-Nov-20 01:09N 47°58' W 122°20'1 1.3
2014-Nov-20 00:32N 47°58' W 122°21'0 0.5
2014-Nov-20 00:09N 47°58' W 122°21'0 0.3
2014-Nov-19 23:33N 47°58' W 122°20'1 1.4
2014-Nov-19 23:09N 47°58' W 122°20'1 1.3
2014-Nov-19 22:33N 47°58' W 122°21'1 2.1
2014-Nov-19 22:08N 47°58' W 122°20'1 1.2
2014-Nov-19 21:33N 47°58' W 122°21'0 0.0
2014-Nov-19 21:33N 47°58' W 122°21'0 0.0
2014-Nov-19 20:33N 47°58' W 122°21'1 2.2
2014-Nov-19 20:08N 47°58' W 122°20'1 1.3
2014-Nov-19 19:34N 47°58' W 122°20'1 1.9
2014-Nov-19 19:07N 47°57' W 122°20'1 1.8
2014-Nov-19 18:33N 47°58' W 122°21'010.5
2014-Nov-19 18:32N 47°58' W 122°21'0 0.5
2014-Nov-19 17:34N 47°58' W 122°20'0 0.2
2014-Nov-19 16:36N 47°58' W 122°20'114.7
2014-Nov-19 16:33N 47°58' W 122°21'1 2.3
2014-Nov-19 16:06N 47°57' W 122°20'1 1.9
2014-Nov-19 15:33N 47°58' W 122°21'0 0.6
2014-Nov-19 15:10N 47°58' W 122°21'0 0.3
2014-Nov-19 14:34N 47°58' W 122°21'0 0.2
2014-Nov-19 13:34N 47°58' W 122°20'019.8
2014-Nov-19 13:33N 47°58' W 122°21'0 0.4
2014-Nov-19 13:14N 47°58' W 122°21'1 0.8
2014-Nov-19 12:33N 47°59' W 122°21'0 0.0
2014-Nov-19 11:24N 47°59' W 122°21'0 0.0
2014-Nov-19 10:31N 47°59' W 122°21'0 0.0
2014-Nov-19 08:38N 47°59' W 122°21'0 0.0
2014-Nov-19 08:33N 47°59' W 122°21'0 0.2
2014-Nov-19 08:23N 47°59' W 122°21'0 0.0
2014-Nov-19 07:22N 47°59' W 122°21'0 0.0
2014-Nov-19 06:33N 47°59' W 122°21'0 0.0
2014-Nov-19 06:18N 47°59' W 122°21'0 0.0
2014-Nov-19 05:33N 47°59' W 122°21'1 1.8
2014-Nov-19 05:13N 47°59' W 122°21'1 1.3
2014-Nov-19 04:33N 47°58' W 122°20'0 0.0
2014-Nov-19 04:33N 47°58' W 122°20'0 0.1
2014-Nov-19 03:33N 47°58' W 122°21'010.5
2014-Nov-19 03:33N 47°58' W 122°21'0 0.2
2014-Nov-19 02:34N 47°58' W 122°20'0 1.0
2014-Nov-19 02:12N 47°58' W 122°21'0 0.2
2014-Nov-19 01:33N 47°58' W 122°21'0 0.0
2014-Nov-19 01:33N 47°58' W 122°21'0 0.0
2014-Nov-19 00:32N 47°58' W 122°21'0 0.1
2014-Nov-18 23:33N 47°58' W 122°20'012.7
2014-Nov-18 23:32N 47°58' W 122°21'0 0.3
2014-Nov-18 22:33N 47°58' W 122°20'0 0.1
2014-Nov-18 21:33N 47°58' W 122°20'014.8
2014-Nov-18 21:32N 47°58' W 122°21'0 0.3
2014-Nov-18 20:33N 47°58' W 122°20'1 1.5
2014-Nov-18 20:07N 47°58' W 122°20'1 1.6
2014-Nov-18 19:33N 47°58' W 122°21'0 0.4
2014-Nov-18 18:33N 47°58' W 122°20'1 1.2
2014-Nov-18 18:06N 47°58' W 122°20'1 1.1
2014-Nov-18 17:33N 47°58' W 122°20'1 1.4
2014-Nov-18 17:06N 47°58' W 122°20'0 0.8
2014-Nov-18 16:33N 47°58' W 122°20'0 0.3
2014-Nov-18 15:40N 47°58' W 122°20'1 8.8
2014-Nov-18 15:33N 47°58' W 122°21'0 0.2
2014-Nov-18 15:11N 47°58' W 122°21'0 0.7
2014-Nov-18 14:33N 47°58' W 122°20'1 1.4
2014-Nov-18 14:06N 47°58' W 122°20'1 1.2
2014-Nov-18 13:34N 47°58' W 122°20'1 2.1
2014-Nov-18 13:10N 47°57' W 122°20'1 2.2
2014-Nov-18 12:33N 47°59' W 122°21'0 0.1
2014-Nov-18 11:50N 47°59' W 122°21'0 0.0
2014-Nov-18 11:33N 47°59' W 122°21'0 0.0
2014-Nov-18 11:20N 47°59' W 122°21'  
Track history (hours):
 
Tides and Currents Weather Stations Pressure Air Temp Water Temp Dewpoint Dewpoint Depression Visibility Wind Speed Wind Dir Waves Ship Positions

Kittitas

Owner: WASHINGTON, STATE OF; Dept. of Transportation, OLYMPIA, WA. More information available from US FCC via Universal Licensing System and Coast Guard Vessel Documentation Center.

Last reported at 2014-Nov-28 10:33 UTC. Time now 2014-Nov-28 11:08 UTC.
Position N 47°36' W 122°20'.

Length 100 m; draft 4.7 m.

Type: Passenger vessel. MMSI: 366772960.

Date/timePositionNaut miles runAvg speedWind from/ knotsBaromVisibWave heightAir tempDewpointWater temp
2014-Nov-28 10:33N 47°36' W 122°20'0 0.1
2014-Nov-28 10:30N 47°36' W 122°20'0 0.0
2014-Nov-28 09:33N 47°36' W 122°20'0 0.0
2014-Nov-28 09:31N 47°36' W 122°20'0 0.0
2014-Nov-28 08:33N 47°36' W 122°20'0 0.0
2014-Nov-28 08:30N 47°36' W 122°20'0 0.0
2014-Nov-28 07:34N 47°36' W 122°20'0 0.0
2014-Nov-28 07:30N 47°36' W 122°20'0 0.0
2014-Nov-28 06:50N 47°36' W 122°20'0 0.0
2014-Nov-28 06:33N 47°36' W 122°20'0 0.0
2014-Nov-28 05:33N 47°36' W 122°20'0 0.0
2014-Nov-28 05:30N 47°36' W 122°20'0 0.0
2014-Nov-28 04:33N 47°36' W 122°20'0 0.0
2014-Nov-28 04:30N 47°36' W 122°20'0 0.0
2014-Nov-28 03:34N 47°36' W 122°20'0 0.0
2014-Nov-28 03:30N 47°36' W 122°20'0 0.0
2014-Nov-28 02:33N 47°36' W 122°20'0 0.0
2014-Nov-28 02:24N 47°36' W 122°20'0 0.0
2014-Nov-28 01:33N 47°36' W 122°20'0 0.1
2014-Nov-28 01:29N 47°36' W 122°20'0 0.0
2014-Nov-28 00:34N 47°36' W 122°20'0 0.0
2014-Nov-28 00:28N 47°36' W 122°20'0 0.0
2014-Nov-27 23:34N 47°36' W 122°20'0 0.0
2014-Nov-27 23:34N 47°36' W 122°20'0 0.0
2014-Nov-27 22:34N 47°36' W 122°20'0 0.0
2014-Nov-27 22:34N 47°36' W 122°20'0 0.0
2014-Nov-27 21:34N 47°36' W 122°20'0 0.0
2014-Nov-27 21:33N 47°36' W 122°20'0 0.0
2014-Nov-27 20:33N 47°36' W 122°20'0 0.0
2014-Nov-27 20:33N 47°36' W 122°20'0 0.0
2014-Nov-27 19:34N 47°36' W 122°20'0 0.0
2014-Nov-27 19:33N 47°36' W 122°20'0 0.0
2014-Nov-27 18:34N 47°36' W 122°20'0 0.0
2014-Nov-27 18:32N 47°36' W 122°20'0 0.0
2014-Nov-27 17:33N 47°36' W 122°20'0 0.0
2014-Nov-27 16:33N 47°36' W 122°20'0 0.0
2014-Nov-27 16:13N 47°36' W 122°20'0 0.0
2014-Nov-27 15:34N 47°36' W 122°20'0 0.0
2014-Nov-27 15:33N 47°36' W 122°20'0 0.0
2014-Nov-27 14:33N 47°36' W 122°20'0 0.0
2014-Nov-27 14:33N 47°36' W 122°20'0 0.0
2014-Nov-27 13:34N 47°36' W 122°20'0 0.0
2014-Nov-27 13:33N 47°36' W 122°20'0 0.0
2014-Nov-27 12:34N 47°36' W 122°20'0 0.0
2014-Nov-27 12:33N 47°36' W 122°20'0 0.0
2014-Nov-27 11:33N 47°36' W 122°20'0 0.0
2014-Nov-27 11:33N 47°36' W 122°20'0 0.0
2014-Nov-27 10:33N 47°36' W 122°20'0 0.0
2014-Nov-27 10:32N 47°36' W 122°20'0 0.0
2014-Nov-27 09:33N 47°36' W 122°20'0 0.0
2014-Nov-27 09:27N 47°36' W 122°20'0 0.0
2014-Nov-27 08:33N 47°36' W 122°20'0 0.0
2014-Nov-27 08:32N 47°36' W 122°20'0 0.0
2014-Nov-27 07:34N 47°36' W 122°20'0 0.0
2014-Nov-27 07:27N 47°36' W 122°20'0 0.0
2014-Nov-27 06:57N 47°36' W 122°20'0 0.0
2014-Nov-27 06:34N 47°36' W 122°20'9 8.5
2014-Nov-27 05:34N 47°43' W 122°27'013.6
2014-Nov-27 05:32N 47°44' W 122°27'1515.7
2014-Nov-27 04:33N 47°58' W 122°21'0 0.0
2014-Nov-27 04:11N 47°58' W 122°21'0 0.6
2014-Nov-27 03:34N 47°58' W 122°20'1 1.5
2014-Nov-27 03:06N 47°58' W 122°20'1 1.1
2014-Nov-27 02:33N 47°58' W 122°20'0 0.1
2014-Nov-27 01:33N 47°58' W 122°20'0 0.2
2014-Nov-27 00:33N 47°58' W 122°20'0 0.6
2014-Nov-27 00:09N 47°58' W 122°21'0 0.3
2014-Nov-26 23:34N 47°58' W 122°20'0 1.2
2014-Nov-26 23:10N 47°58' W 122°20'1 0.9
2014-Nov-26 22:33N 47°58' W 122°20'0 0.4
2014-Nov-26 21:39N 47°58' W 122°20'1 8.0
2014-Nov-26 21:33N 47°58' W 122°21'0 0.0
2014-Nov-26 20:33N 47°58' W 122°21'0 0.3
2014-Nov-26 19:34N 47°58' W 122°21'012.3
2014-Nov-26 19:33N 47°58' W 122°21'2 3.7
2014-Nov-26 19:03N 47°57' W 122°19'2 3.6
2014-Nov-26 18:34N 47°58' W 122°21'1 0.7
2014-Nov-26 17:38N 47°58' W 122°20'110.6
2014-Nov-26 17:33N 47°58' W 122°21'0 0.3
2014-Nov-26 16:33N 47°58' W 122°21'0 0.0
2014-Nov-26 15:33N 47°58' W 122°21'0 0.1
2014-Nov-26 14:33N 47°58' W 122°21'1 1.8
2014-Nov-26 14:08N 47°58' W 122°20'1 1.1
2014-Nov-26 13:33N 47°58' W 122°20'013.4
2014-Nov-26 13:33N 47°58' W 122°21'0 0.3
2014-Nov-26 12:27N 47°59' W 122°21'0 0.0
2014-Nov-26 11:33N 47°59' W 122°21'0 0.0
2014-Nov-26 10:32N 47°59' W 122°21'0 0.0
2014-Nov-26 09:26N 47°59' W 122°21'0 0.0
2014-Nov-26 08:28N 47°59' W 122°21'0 0.0
2014-Nov-26 05:17N 47°59' W 122°21'0 0.3
2014-Nov-26 04:33N 47°58' W 122°21'0 0.2
2014-Nov-26 03:33N 47°58' W 122°21'0 0.1
2014-Nov-26 02:33N 47°58' W 122°21'0 0.2
2014-Nov-26 01:34N 47°58' W 122°21'0 0.2
2014-Nov-26 00:33N 47°58' W 122°21'0 0.4
2014-Nov-25 23:33N 47°58' W 122°21'0 0.0
2014-Nov-25 22:33N 47°58' W 122°21'1 2.3
2014-Nov-25 22:09N 47°58' W 122°20'1 1.2
2014-Nov-25 21:33N 47°58' W 122°21'2 2.6
2014-Nov-25 20:44N 47°57' W 122°18'210.3
2014-Nov-25 20:33N 47°58' W 122°21'0 0.0
2014-Nov-25 19:33N 47°58' W 122°21'0 0.1
2014-Nov-25 18:33N 47°58' W 122°21'1 0.5
2014-Nov-25 17:34N 47°58' W 122°20'0 0.3
2014-Nov-25 16:33N 47°58' W 122°20'0 1.1
2014-Nov-25 16:08N 47°58' W 122°20'1 1.0
2014-Nov-25 15:33N 47°58' W 122°21'0 0.1
2014-Nov-25 14:33N 47°58' W 122°21'011.2
2014-Nov-25 14:32N 47°58' W 122°21'0 0.1
2014-Nov-25 13:33N 47°58' W 122°21'0 0.1
2014-Nov-25 11:37N 47°59' W 122°21'0 0.0
2014-Nov-25 11:22N 47°59' W 122°21'0 0.0
2014-Nov-25 11:21N 47°59' W 122°21'0 0.0
2014-Nov-25 09:11N 47°59' W 122°21'0 0.0
2014-Nov-25 09:10N 47°59' W 122°21'0 0.1
2014-Nov-25 08:33N 47°59' W 122°21'0 0.1
2014-Nov-25 08:11N 47°59' W 122°21'0 0.0
2014-Nov-25 07:32N 47°59' W 122°21'0 0.0
2014-Nov-25 07:16N 47°59' W 122°21'0 0.0
2014-Nov-25 06:51N 47°59' W 122°21'0 0.0
2014-Nov-25 06:33N 47°59' W 122°21'0 0.0
2014-Nov-25 05:31N 47°59' W 122°21'0 0.0
2014-Nov-25 05:18N 47°59' W 122°21'1 0.8
2014-Nov-25 04:33N 47°58' W 122°20'111.6
2014-Nov-25 04:30N 47°58' W 122°21'1 0.6
2014-Nov-25 03:33N 47°58' W 122°20'1 1.7
2014-Nov-25 03:05N 47°57' W 122°20'1 1.5
2014-Nov-25 02:33N 47°58' W 122°20'0 0.1
2014-Nov-25 01:33N 47°58' W 122°20'0 0.1
2014-Nov-25 00:33N 47°58' W 122°21'0 0.1
2014-Nov-24 23:33N 47°58' W 122°21'0 0.1
2014-Nov-24 22:33N 47°58' W 122°21'0 0.2
2014-Nov-24 21:33N 47°58' W 122°21'0 0.2
2014-Nov-24 20:33N 47°58' W 122°21'0 0.5
2014-Nov-24 20:10N 47°58' W 122°21'0 0.4
2014-Nov-24 19:33N 47°58' W 122°20'0 0.3
2014-Nov-24 18:33N 47°58' W 122°21'0 0.2
2014-Nov-24 17:31N 47°58' W 122°21'1 0.6
2014-Nov-24 16:33N 47°58' W 122°20'0 0.2
2014-Nov-24 15:34N 47°58' W 122°20'0 0.1
2014-Nov-24 14:33N 47°58' W 122°21'1 1.3
2014-Nov-24 14:07N 47°58' W 122°20'0 0.8
2014-Nov-24 13:34N 47°58' W 122°20'015.6
2014-Nov-24 13:33N 47°58' W 122°21'0 0.3
2014-Nov-24 12:33N 47°58' W 122°21'0 0.0
2014-Nov-24 11:34N 47°58' W 122°21'0 0.0
2014-Nov-24 10:32N 47°58' W 122°21'0 0.0
2014-Nov-24 09:26N 47°58' W 122°21'0 0.5
2014-Nov-24 08:33N 47°58' W 122°20'0 0.2
2014-Nov-24 07:33N 47°58' W 122°20'115.8
2014-Nov-24 07:32N 47°58' W 122°21'1 0.5
2014-Nov-24 06:36N 47°58' W 122°20'112.1
2014-Nov-24 06:33N 47°58' W 122°21'1 0.6
2014-Nov-24 05:33N 47°58' W 122°20'0 0.4
2014-Nov-24 04:33N 47°58' W 122°20'0 0.0
2014-Nov-24 03:33N 47°58' W 122°20'0 0.3
2014-Nov-24 02:33N 47°58' W 122°21'0 0.0
2014-Nov-24 01:33N 47°58' W 122°21'0 0.1
2014-Nov-24 00:33N 47°58' W 122°21'0 0.1
2014-Nov-23 23:33N 47°58' W 122°21'0 0.2
2014-Nov-23 22:33N 47°58' W 122°20'0 0.1
2014-Nov-23 21:33N 47°58' W 122°21'2 3.4
2014-Nov-23 21:02N 47°57' W 122°19'2 3.9
2014-Nov-23 20:33N 47°58' W 122°21'0 0.5
2014-Nov-23 19:34N 47°58' W 122°20'014.4
2014-Nov-23 19:33N 47°58' W 122°20'2 3.1
2014-Nov-23 18:58N 47°57' W 122°18'2 4.4
2014-Nov-23 18:33N 47°58' W 122°20'1 1.6
2014-Nov-23 18:06N 47°58' W 122°20'1 1.4
2014-Nov-23 17:33N 47°58' W 122°20'0 0.1
2014-Nov-23 16:33N 47°58' W 122°20'0 0.5
2014-Nov-23 15:33N 47°59' W 122°20'0 4.4
2014-Nov-23 15:28N 47°59' W 122°21'0 0.4
2014-Nov-23 14:34N 47°59' W 122°21'0 3.7
2014-Nov-23 14:28N 47°59' W 122°21'0 0.3
2014-Nov-23 13:33N 47°59' W 122°21'0 8.4
2014-Nov-23 13:32N 47°59' W 122°21'0 0.2
2014-Nov-23 12:33N 47°59' W 122°21'0 0.0
2014-Nov-23 12:12N 47°59' W 122°21'0 0.0
2014-Nov-23 11:33N 47°59' W 122°21'0 0.0
2014-Nov-23 10:47N 47°59' W 122°21'0 0.0
2014-Nov-23 10:32N 47°59' W 122°21'0 0.0
2014-Nov-23 10:22N 47°59' W 122°21'0 0.0
2014-Nov-23 09:32N 47°59' W 122°21'0 0.0
2014-Nov-23 09:29N 47°59' W 122°21'0 0.0
2014-Nov-23 07:29N 47°59' W 122°21'0 0.0
2014-Nov-23 06:57N 47°59' W 122°21'0 0.3
2014-Nov-23 06:33N 47°59' W 122°21'0 0.2
2014-Nov-23 05:32N 47°58' W 122°21'2 3.7
2014-Nov-23 05:07N 47°57' W 122°19'1 2.3
2014-Nov-23 04:33N 47°58' W 122°21'1 0.7
2014-Nov-23 03:37N 47°58' W 122°20'1 9.2
2014-Nov-23 03:33N 47°58' W 122°21'1 0.6
2014-Nov-23 02:34N 47°58' W 122°20'013.4
2014-Nov-23 02:32N 47°58' W 122°20'0 0.2
2014-Nov-23 01:33N 47°58' W 122°21'0 0.5
2014-Nov-23 00:36N 47°58' W 122°20'112.3
2014-Nov-23 00:33N 47°58' W 122°21'0 0.7
2014-Nov-23 00:16N 47°58' W 122°21'0 0.0
2014-Nov-22 23:33N 47°58' W 122°21'0 0.2
2014-Nov-22 22:33N 47°58' W 122°21'1 1.0
2014-Nov-22 21:36N 47°58' W 122°20'117.0
2014-Nov-22 21:33N 47°58' W 122°20'1 1.4
2014-Nov-22 21:06N 47°58' W 122°20'1 1.5
2014-Nov-22 20:33N 47°58' W 122°21'1 2.0
2014-Nov-22 20:06N 47°58' W 122°20'1 1.7
2014-Nov-22 19:33N 47°58' W 122°21'0 0.4
2014-Nov-22 18:33N 47°58' W 122°20'011.9
2014-Nov-22 18:31N 47°58' W 122°21'0 0.4
2014-Nov-22 17:33N 47°58' W 122°20'0 0.1
2014-Nov-22 16:33N 47°58' W 122°21'1 1.6
2014-Nov-22 16:11N 47°58' W 122°20'1 1.3
2014-Nov-22 15:33N 47°58' W 122°21'1 0.8
2014-Nov-22 14:36N 47°58' W 122°20'114.0
2014-Nov-22 14:33N 47°58' W 122°21'2 2.1
2014-Nov-22 13:40N 47°57' W 122°18'215.2
2014-Nov-22 13:33N 47°58' W 122°20'1 0.5
2014-Nov-22 12:18N 47°58' W 122°21'0 0.0
2014-Nov-22 12:17N 47°58' W 122°21'0 0.0
2014-Nov-22 09:26N 47°58' W 122°21'0 0.9
2014-Nov-22 09:16N 47°58' W 122°21'0 0.4
2014-Nov-22 08:33N 47°58' W 122°20'1 1.4
2014-Nov-22 07:38N 47°57' W 122°19'116.7
2014-Nov-22 07:33N 47°58' W 122°20'0 0.0
2014-Nov-22 06:33N 47°58' W 122°20'013.2
2014-Nov-22 06:32N 47°58' W 122°21'0 0.5
2014-Nov-22 05:34N 47°58' W 122°20'0 0.3
2014-Nov-22 05:12N 47°58' W 122°20'0 0.5
2014-Nov-22 04:33N 47°58' W 122°21'0 6.8
2014-Nov-22 04:32N 47°58' W 122°21'0 0.2
2014-Nov-22 03:33N 47°58' W 122°21'0 0.2
2014-Nov-22 02:33N 47°58' W 122°20'1 1.7
2014-Nov-22 02:11N 47°58' W 122°20'1 1.6
2014-Nov-22 01:33N 47°58' W 122°21'1 3.9
2014-Nov-22 01:11N 47°57' W 122°19'1 2.3
2014-Nov-22 00:33N 47°58' W 122°21'0 0.3
2014-Nov-21 23:33N 47°58' W 122°21'0 6.1
2014-Nov-21 23:31N 47°58' W 122°21'0 0.3
2014-Nov-21 22:33N 47°58' W 122°20'0 1.5
2014-Nov-21 22:16N 47°58' W 122°21'1 0.9
2014-Nov-21 21:33N 47°58' W 122°20'1 1.1
2014-Nov-21 21:06N 47°58' W 122°20'1 1.4
2014-Nov-21 20:33N 47°58' W 122°21'0 0.2
2014-Nov-21 19:33N 47°58' W 122°21'0 0.2
2014-Nov-21 18:33N 47°58' W 122°20'0 0.1
2014-Nov-21 17:33N 47°58' W 122°20'0 0.5
2014-Nov-21 16:35N 47°58' W 122°20'013.8
2014-Nov-21 16:33N 47°58' W 122°20'0 0.5
2014-Nov-21 16:10N 47°58' W 122°21'0 0.2
2014-Nov-21 15:33N 47°58' W 122°20'0 0.2
2014-Nov-21 14:32N 47°58' W 122°21'0 0.1
2014-Nov-21 13:33N 47°58' W 122°21'0 0.4
2014-Nov-21 12:31N 47°59' W 122°21'0 0.0
2014-Nov-21 11:16N 47°59' W 122°21'0 0.0
2014-Nov-21 10:48N 47°59' W 122°21'0 0.1
2014-Nov-21 10:25N 47°59' W 122°21'0 0.0
2014-Nov-21 09:17N 47°59' W 122°21'0 0.0
2014-Nov-21 07:28N 47°59' W 122°21'0 0.0
2014-Nov-21 06:23N 47°59' W 122°21'0 0.0
2014-Nov-21 05:32N 47°59' W 122°21'1 2.3
2014-Nov-21 05:08N 47°59' W 122°20'1 1.4
2014-Nov-21 04:32N 47°58' W 122°21'2 1.7
2014-Nov-21 03:37N 47°58' W 122°19'116.2
2014-Nov-21 03:34N 47°58' W 122°20'1 1.4
2014-Nov-21 03:08N 47°58' W 122°20'1 1.7
2014-Nov-21 02:33N 47°58' W 122°21'2 2.3
2014-Nov-21 01:42N 47°57' W 122°18'211.6
2014-Nov-21 01:33N 47°58' W 122°21'012.5
2014-Nov-21 01:32N 47°58' W 122°21'0 0.3
2014-Nov-21 00:33N 47°58' W 122°20'2 2.1
2014-Nov-20 23:41N 47°57' W 122°18'213.7
2014-Nov-20 23:33N 47°58' W 122°20'1 2.4
2014-Nov-20 23:06N 47°57' W 122°19'1 2.2
2014-Nov-20 22:34N 47°58' W 122°20'1 2.6
2014-Nov-20 22:05N 47°57' W 122°19'1 2.8
2014-Nov-20 21:33N 47°58' W 122°21'1 0.7
2014-Nov-20 20:36N 47°58' W 122°20'114.0
2014-Nov-20 20:33N 47°58' W 122°21'1 0.7
2014-Nov-20 19:36N 47°58' W 122°20'113.9
2014-Nov-20 19:34N 47°58' W 122°21'0 0.1
2014-Nov-20 18:33N 47°58' W 122°21'0 0.1
2014-Nov-20 17:33N 47°58' W 122°20'0 0.3
2014-Nov-20 16:35N 47°58' W 122°20'014.9
2014-Nov-20 16:33N 47°58' W 122°20'0 0.1
2014-Nov-20 15:34N 47°58' W 122°21'0 0.5
2014-Nov-20 15:10N 47°58' W 122°21'0 0.2
2014-Nov-20 14:32N 47°58' W 122°21'0 0.3
2014-Nov-20 13:33N 47°58' W 122°20'1 1.9
2014-Nov-20 13:09N 47°58' W 122°20'1 2.2
2014-Nov-20 12:33N 47°58' W 122°21'0 0.0
2014-Nov-20 11:32N 47°58' W 122°21'0 0.0
2014-Nov-20 10:33N 47°58' W 122°21'0 0.0
2014-Nov-20 09:21N 47°58' W 122°21'2 6.1
2014-Nov-20 08:58N 47°57' W 122°18'2 4.1
2014-Nov-20 08:33N 47°58' W 122°20'0 0.2
2014-Nov-20 07:33N 47°58' W 122°20'0 0.1
2014-Nov-20 06:33N 47°58' W 122°21'1 1.3
2014-Nov-20 06:07N 47°58' W 122°20'1 1.1
2014-Nov-20 05:33N 47°58' W 122°21'0 0.7
2014-Nov-20 05:07N 47°58' W 122°20'0 0.4
2014-Nov-20 04:33N 47°58' W 122°20'010.8
2014-Nov-20 04:32N 47°58' W 122°21'0 0.0
2014-Nov-20 03:33N 47°58' W 122°21'1 1.2
2014-Nov-20 03:07N 47°58' W 122°20'0 0.7
2014-Nov-20 02:33N 47°58' W 122°20'0 0.1
2014-Nov-20 01:33N 47°58' W 122°21'1 1.6
2014-Nov-20 01:09N 47°58' W 122°20'1 1.3
2014-Nov-20 00:32N 47°58' W 122°21'0 0.5
2014-Nov-20 00:09N 47°58' W 122°21'0 0.3
2014-Nov-19 23:33N 47°58' W 122°20'1 1.4
2014-Nov-19 23:09N 47°58' W 122°20'1 1.3
2014-Nov-19 22:33N 47°58' W 122°21'1 2.1
2014-Nov-19 22:08N 47°58' W 122°20'1 1.2
2014-Nov-19 21:33N 47°58' W 122°21'0 0.0
2014-Nov-19 21:33N 47°58' W 122°21'0 0.0
2014-Nov-19 20:33N 47°58' W 122°21'1 2.2
2014-Nov-19 20:08N 47°58' W 122°20'1 1.3
2014-Nov-19 19:34N 47°58' W 122°20'1 1.9
2014-Nov-19 19:07N 47°57' W 122°20'1 1.8
2014-Nov-19 18:33N 47°58' W 122°21'010.5
2014-Nov-19 18:32N 47°58' W 122°21'0 0.5
2014-Nov-19 17:34N 47°58' W 122°20'0 0.2
2014-Nov-19 16:36N 47°58' W 122°20'114.7
2014-Nov-19 16:33N 47°58' W 122°21'1 2.3
2014-Nov-19 16:06N 47°57' W 122°20'1 1.9
2014-Nov-19 15:33N 47°58' W 122°21'0 0.6
2014-Nov-19 15:10N 47°58' W 122°21'0 0.3
2014-Nov-19 14:34N 47°58' W 122°21'0 0.2
2014-Nov-19 13:34N 47°58' W 122°20'019.8
2014-Nov-19 13:33N 47°58' W 122°21'0 0.4
2014-Nov-19 13:14N 47°58' W 122°21'1 0.8
2014-Nov-19 12:33N 47°59' W 122°21'0 0.0
2014-Nov-19 11:24N 47°59' W 122°21'0 0.0
2014-Nov-19 10:31N 47°59' W 122°21'0 0.0
2014-Nov-19 08:38N 47°59' W 122°21'0 0.0
2014-Nov-19 08:33N 47°59' W 122°21'0 0.2
2014-Nov-19 08:23N 47°59' W 122°21'0 0.0
2014-Nov-19 07:22N 47°59' W 122°21'0 0.0
2014-Nov-19 06:33N 47°59' W 122°21'0 0.0
2014-Nov-19 06:18N 47°59' W 122°21'0 0.0
2014-Nov-19 05:33N 47°59' W 122°21'1 1.8
2014-Nov-19 05:13N 47°59' W 122°21'1 1.3
2014-Nov-19 04:33N 47°58' W 122°20'0 0.0
2014-Nov-19 04:33N 47°58' W 122°20'0 0.1
2014-Nov-19 03:33N 47°58' W 122°21'010.5
2014-Nov-19 03:33N 47°58' W 122°21'0 0.2
2014-Nov-19 02:34N 47°58' W 122°20'0 1.0
2014-Nov-19 02:12N 47°58' W 122°21'0 0.2
2014-Nov-19 01:33N 47°58' W 122°21'0 0.0
2014-Nov-19 01:33N 47°58' W 122°21'0 0.0
2014-Nov-19 00:32N 47°58' W 122°21'0 0.1
2014-Nov-18 23:33N 47°58' W 122°20'012.7
2014-Nov-18 23:32N 47°58' W 122°21'0 0.3
2014-Nov-18 22:33N 47°58' W 122°20'0 0.1
2014-Nov-18 21:33N 47°58' W 122°20'014.8
2014-Nov-18 21:32N 47°58' W 122°21'0 0.3
2014-Nov-18 20:33N 47°58' W 122°20'1 1.5
2014-Nov-18 20:07N 47°58' W 122°20'1 1.6
2014-Nov-18 19:33N 47°58' W 122°21'0 0.4
2014-Nov-18 18:33N 47°58' W 122°20'1 1.2
2014-Nov-18 18:06N 47°58' W 122°20'1 1.1
2014-Nov-18 17:33N 47°58' W 122°20'1 1.4
2014-Nov-18 17:06N 47°58' W 122°20'0 0.8
2014-Nov-18 16:33N 47°58' W 122°20'0 0.3
2014-Nov-18 15:40N 47°58' W 122°20'1 8.8
2014-Nov-18 15:33N 47°58' W 122°21'0 0.2
2014-Nov-18 15:11N 47°58' W 122°21'0 0.7
2014-Nov-18 14:33N 47°58' W 122°20'1 1.4
2014-Nov-18 14:06N 47°58' W 122°20'1 1.2
2014-Nov-18 13:34N 47°58' W 122°20'1 2.1
2014-Nov-18 13:10N 47°57' W 122°20'1 2.2
2014-Nov-18 12:33N 47°59' W 122°21'0 0.1
2014-Nov-18 11:50N 47°59' W 122°21'0 0.0
2014-Nov-18 11:33N 47°59' W 122°21'0 0.0
2014-Nov-18 11:20N 47°59' W 122°21'  

Dump ship's entire track history